ESFO2: Salt Fork Red River nr Elmer, OK

Data processed at Thu May 23 2019 23:50


All information presented herein is the property of the government of the United States of America and may be revised or deleted at any time without prior notice.
Dissemination of this information without the expressed written consent of the Public Affairs Office, Tulsa District U.S. Army Corps of Engineers is strictly prohibited.
These data are gathered electronically and, as presented, have not undergone any form of quality control. These data are not guaranteed to be valid or correct.
Go to home page.
Go to station list.
Go to home page.

Upstream stations:

Downstream station:
Previous Day
Next Day
Current Day
    
SHEF ID:       ESFO2     Salt Fork Red River near Elmer,
STATION TYPE:  
Regulating: Stage =    14.00, Flow =     4957

                STAGE  RIV-FLOW  BAT-LOAD
                   ft       cfs      volt
              Ccp-Rev   Ccp-Rev   Ccp-Rev
(US/Central)
05/23 00:00      8.55       461     12.65
05/23 01:00      8.63       486     12.65
05/23 02:00      8.69       506     12.65
05/23 03:00      8.75       526     12.65
05/23 04:00      8.81       546     12.65
05/23 05:00      8.83       553     12.65
05/23 06:00      8.86       564     12.57
05/23 07:00      8.86       564     12.57
05/23 08:00      8.87       567     12.57
05/23 09:00      8.83       553     12.57
05/23 10:00      8.80       543     12.57
05/23 11:00      8.75       526     12.57
05/23 12:00      8.72       516     12.57
05/23 13:00      8.67       499     12.57
05/23 14:00      8.59       474     12.57
05/23 15:00      8.54       458     12.57
05/23 16:00      8.46       434     12.65
05/23 17:00      8.45       431     12.65
05/23 18:00      8.43       425     12.65
05/23 19:00      8.41       419     12.65
05/23 20:00      8.40       416     12.65
05/23 21:00      8.39       413     12.57
05/23 22:00      8.38       411     12.57
05/23 23:00      8.38       411     12.57